Main page
METAR-TAF:

METAR-TAF

Airports :

Cairo, Egypt

Cairo International Airport

latitude: 30-08N, longitude: 031-24E, elevation: 64 m

Current weather observation

The report was made 27 minutes ago, at 18:30 UTC
Wind 8 kt from the West
Temperature 15°C
Humidity 51%
Pressure 1021 hPa
Visibility 10 km or more
Broken clouds at a height of 3000 ft

METAR: HECA 191830Z 28008KT 9999 BKN030 15/05 Q1021 NOSIG

Time: 20:57 (18:57 UTC)

Forecast

The report was made 1 hour and 57 minutes ago, at 17:00 UTC
Forecast valid from 19 at 18 UTC to 20 at 24 UTC
Wind 10 kt from the West/Northwest
Visibility 10 km or more
Scattered clouds at a height of 2500 ft
Temporary
from 20 at 00 UTC to 20 at 10 UTC
Wind 3 kt from variable directions
Visibility: 6000 m
Temporary
from 20 at 00 UTC to 20 at 08 UTC
Visibility: 4000 m
haze

TAF: HECA 191700Z 1918/2024 30010KT 9999 SCT025 TEMPO 2000/2010 VRB03KT 6000 NSC TEMPO 2000/2008 4000 HZ

Weather observations and forecasts of more than 4000 airports (METAR and TAF reports).

The available stations are represented by yellow and red dots on the map.

Hover mouse over dot to see the name of the station.

Then click to see weather observations and forecasts.

To change the map : click on the green buttons with a black cross to zoom in, on the green button with a dash to zoom out, or on the green arrows for adjacent maps.


METAR-TAF: